Time;durP1;ratioP1;P1;durP2;ratioP2;P2;SDS_P1;SDS_P2;PMS_P1;PMS_P2;Temp;Humidity;BMP_temperature;BMP_pressure;BME280_temperature;BME280_humidity;BME280_pressure;Samples;Min_cycle;Max_cycle;Signal;HPM_P1;HPM_P2
2023/11/04 00:01:30;;;;;;;1999.90;999.90;;;9.00;99.90;;;;;;5073062;28;20440;-69
2023/11/04 00:03:56;;;;;;;1999.90;999.90;;;9.00;99.90;;;;;;5073512;28;20180;-68
2023/11/04 00:06:23;;;;;;;1999.90;999.90;;;9.00;99.90;;;;;;5073684;28;20176;-69
2023/11/04 00:08:49;;;;;;;1999.90;999.90;;;9.00;99.90;;;;;;5073292;28;20183;-69
2023/11/04 00:11:14;;;;;;;1999.90;999.90;;;9.00;99.90;;;;;;5073471;28;20506;-69
2023/11/04 00:13:40;;;;;;;1999.90;999.90;;;9.00;99.90;;;;;;5073290;28;20259;-70
2023/11/04 00:16:08;;;;;;;1999.90;999.90;;;9.00;99.90;;;;;;5073180;28;20179;-69
2023/11/04 00:18:35;;;;;;;1999.90;999.90;;;9.00;99.90;;;;;;5073151;28;20737;-69
2023/11/04 00:21:02;;;;;;;1999.90;999.90;;;9.00;99.90;;;;;;5073069;28;20437;-69
2023/11/04 00:23:27;;;;;;;1999.90;999.90;;;9.00;99.90;;;;;;5073103;28;20401;-69
2023/11/04 00:25:53;;;;;;;1999.90;999.90;;;9.00;99.90;;;;;;5073174;28;20840;-69
2023/11/04 00:28:19;;;;;;;1999.90;999.90;;;9.00;99.90;;;;;;5073029;28;20178;-69
2023/11/04 00:30:45;;;;;;;1999.90;999.90;;;9.00;99.90;;;;;;5072834;28;20198;-68
2023/11/04 00:33:10;;;;;;;1999.90;999.90;;;9.00;99.90;;;;;;5072791;28;20180;-69
2023/11/04 00:35:36;;;;;;;1999.90;999.90;;;9.00;99.90;;;;;;5072840;28;20776;-69
2023/11/04 00:38:01;;;;;;;1999.90;999.90;;;9.00;99.90;;;;;;5074567;28;20262;-69
2023/11/04 00:40:27;;;;;;;1999.90;999.90;;;8.90;99.90;;;;;;5074667;28;20199;-69
2023/11/04 00:42:53;;;;;;;1999.90;999.90;;;9.00;99.90;;;;;;5074386;28;20606;-69
2023/11/04 00:45:18;;;;;;;1999.90;999.90;;;9.00;99.90;;;;;;5074271;28;20178;-69
2023/11/04 00:47:44;;;;;;;1999.90;999.90;;;8.90;99.90;;;;;;5074522;28;20637;-69
2023/11/04 00:50:10;;;;;;;1999.90;999.90;;;8.90;99.90;;;;;;5074476;28;20227;-69
2023/11/04 00:52:36;;;;;;;1999.90;999.90;;;8.90;99.90;;;;;;5074470;28;20165;-69
2023/11/04 00:55:03;;;;;;;1999.90;999.90;;;8.70;99.90;;;;;;5074373;28;20508;-69
2023/11/04 00:57:28;;;;;;;1999.90;999.90;;;8.70;99.90;;;;;;5074670;28;20502;-68
2023/11/04 00:59:54;;;;;;;1999.90;999.90;;;8.60;99.90;;;;;;5074250;28;20430;-68
2023/11/04 01:02:19;;;;;;;1999.90;999.90;;;8.70;99.90;;;;;;5073948;28;20183;-69
2023/11/04 01:04:45;;;;;;;1999.90;999.90;;;8.60;99.90;;;;;;5074218;28;20182;-69
2023/11/04 01:07:10;;;;;;;1999.90;999.90;;;8.60;99.90;;;;;;5073954;28;20250;-69
2023/11/04 01:09:36;;;;;;;1999.90;999.90;;;8.70;99.90;;;;;;5074483;28;20199;-69
2023/11/04 01:12:02;;;;;;;1999.90;999.90;;;8.60;99.90;;;;;;5074256;28;20550;-69
2023/11/04 01:14:27;;;;;;;1999.90;999.90;;;8.60;99.90;;;;;;5074276;28;20170;-69
2023/11/04 01:16:53;;;;;;;1999.90;999.90;;;8.60;99.90;;;;;;5074487;28;20180;-69
2023/11/04 01:19:18;;;;;;;1999.90;999.90;;;8.50;99.90;;;;;;5073825;28;20215;-68
2023/11/04 01:21:44;;;;;;;1999.90;999.90;;;8.50;99.90;;;;;;5073706;28;20254;-69
2023/11/04 01:24:10;;;;;;;1999.90;999.90;;;8.50;99.90;;;;;;5074257;28;20703;-69
2023/11/04 01:26:36;;;;;;;1999.90;999.90;;;8.60;99.90;;;;;;5056050;28;20196;-69
2023/11/04 01:29:01;;;;;;;1999.90;999.90;;;8.50;99.90;;;;;;5073564;28;20418;-69
2023/11/04 01:31:27;;;;;;;1999.90;999.90;;;8.60;99.90;;;;;;5073859;28;20602;-69
2023/11/04 01:33:52;;;;;;;1999.90;999.90;;;8.60;99.90;;;;;;5073885;28;20264;-69
2023/11/04 01:36:18;;;;;;;1999.90;999.90;;;8.60;99.90;;;;;;5074172;28;20588;-69
2023/11/04 01:38:44;;;;;;;1999.90;999.90;;;8.70;99.90;;;;;;5073511;28;20197;-69
2023/11/04 01:41:09;;;;;;;1999.90;999.90;;;8.70;99.90;;;;;;5073686;28;20193;-69
2023/11/04 01:43:35;;;;;;;1999.90;999.90;;;8.70;99.90;;;;;;5073392;28;20207;-69
2023/11/04 01:46:17;;;;;;;1999.90;999.90;;;8.60;99.90;;;;;;5074183;28;20171;-69
2023/11/04 01:48:43;;;;;;;1999.90;999.90;;;8.60;99.90;;;;;;5076259;28;20167;-69
2023/11/04 01:51:10;;;;;;;1999.90;999.90;;;8.60;99.90;;;;;;5078236;28;20439;-69
2023/11/04 01:53:37;;;;;;;1999.90;999.90;;;8.70;99.90;;;;;;5078024;28;20439;-69
2023/11/04 01:56:08;;;;;;;1999.90;999.90;;;8.60;99.90;;;;;;5077730;28;20407;-68
2023/11/04 01:58:35;;;;;;;1999.90;999.90;;;8.70;99.90;;;;;;5077824;28;20489;-69
2023/11/04 02:01:02;;;;;;;1999.90;999.90;;;8.70;99.90;;;;;;5077891;28;20496;-69
2023/11/04 02:03:28;;;;;;;1999.90;999.90;;;8.70;99.90;;;;;;5077421;28;20444;-69
2023/11/04 02:05:53;;;;;;;1999.90;999.90;;;8.70;99.90;;;;;;5077725;28;20888;-68
2023/11/04 02:08:19;;;;;;;1999.90;999.90;;;8.90;99.90;;;;;;5077479;28;20555;-68
2023/11/04 02:10:46;;;;;;;1999.90;999.90;;;8.90;99.90;;;;;;5077645;28;20201;-69
2023/11/04 02:13:11;;;;;;;1999.90;999.90;;;9.10;99.90;;;;;;5076805;28;20404;-68
2023/11/04 02:15:37;;;;;;;1999.90;999.90;;;9.10;99.90;;;;;;5077435;28;20406;-69
2023/11/04 02:18:03;;;;;;;1999.90;999.90;;;9.10;99.90;;;;;;5077005;28;20200;-69
2023/11/04 02:20:33;;;;;;;1999.90;999.90;;;9.10;99.90;;;;;;5077308;28;20219;-69
2023/11/04 02:22:59;;;;;;;1999.90;999.90;;;9.10;99.90;;;;;;5077393;28;20505;-68
2023/11/04 02:25:31;;;;;;;1999.90;999.90;;;9.00;99.90;;;;;;5076595;28;20419;-69
2023/11/04 02:27:57;;;;;;;1999.90;999.90;;;9.00;99.90;;;;;;5076611;28;20419;-68
2023/11/04 02:30:22;;;;;;;1999.90;999.90;;;9.00;99.90;;;;;;5076482;28;20451;-69
2023/11/04 02:32:49;;;;;;;1999.90;999.90;;;9.10;99.90;;;;;;5076249;28;20177;-69
2023/11/04 02:35:15;;;;;;;1999.90;999.90;;;9.10;99.90;;;;;;5076701;28;20168;-69
2023/11/04 02:37:41;;;;;;;1999.90;999.90;;;9.10;99.90;;;;;;5076208;28;20450;-68
2023/11/04 02:40:10;;;;;;;1999.90;999.90;;;9.20;99.90;;;;;;5076502;28;20961;-69
2023/11/04 02:42:35;;;;;;;1999.90;999.90;;;9.10;99.90;;;;;;5076459;28;20418;-68
2023/11/04 02:45:02;;;;;;;1999.90;999.90;;;9.30;99.90;;;;;;5076735;28;20414;-69
2023/11/04 02:47:27;;;;;;;1999.90;999.90;;;9.10;99.90;;;;;;5076408;28;20644;-69
2023/11/04 02:49:53;;;;;;;1999.90;999.90;;;9.10;99.90;;;;;;5076315;28;20422;-69
2023/11/04 02:52:18;;;;;;;1999.90;999.90;;;9.10;99.90;;;;;;5076561;28;20175;-69
2023/11/04 02:54:44;;;;;;;1999.90;999.90;;;9.10;99.90;;;;;;5076295;28;20233;-69
2023/11/04 02:57:11;;;;;;;1999.90;999.90;;;9.20;99.90;;;;;;5076148;28;20176;-69
2023/11/04 02:59:37;;;;;;;1999.90;999.90;;;9.20;99.90;;;;;;5074845;28;20181;-68
2023/11/04 03:02:05;;;;;;;1999.90;999.90;;;9.20;99.90;;;;;;5076165;28;20899;-69
2023/11/04 03:04:31;;;;;;;1999.90;999.90;;;9.20;99.90;;;;;;5075864;28;20176;-68
2023/11/04 03:06:57;;;;;;;1999.90;999.90;;;9.30;99.90;;;;;;5076233;28;20408;-68
2023/11/04 03:09:22;;;;;;;1999.90;999.90;;;9.30;99.90;;;;;;5075625;28;20452;-69
2023/11/04 03:11:48;;;;;;;1999.90;999.90;;;9.30;99.90;;;;;;5075598;28;20417;-68
2023/11/04 03:14:14;;;;;;;1999.90;999.90;;;9.30;99.90;;;;;;5075631;28;20207;-68
2023/11/04 03:16:40;;;;;;;1999.90;999.90;;;9.30;99.90;;;;;;5075684;28;20429;-69
2023/11/04 03:19:06;;;;;;;1999.90;999.90;;;9.50;99.90;;;;;;5075835;28;20451;-68
2023/11/04 03:21:31;;;;;;;1999.90;999.90;;;9.30;99.90;;;;;;5076081;28;20668;-69
2023/11/04 03:23:57;;;;;;;1999.90;999.90;;;9.50;99.90;;;;;;5076205;28;20174;-69
2023/11/04 03:26:23;;;;;;;1999.90;999.90;;;9.50;99.90;;;;;;5076135;28;20180;-68
2023/11/04 03:28:48;;;;;;;1999.90;999.90;;;9.40;99.90;;;;;;5075835;28;20165;-69
2023/11/04 03:31:14;;;;;;;1999.90;999.90;;;9.30;99.90;;;;;;5075803;28;20696;-69
2023/11/04 03:33:40;;;;;;;1999.90;999.90;;;9.40;99.90;;;;;;5075654;28;20224;-69
2023/11/04 03:36:08;;;;;;;1999.90;999.90;;;9.40;99.90;;;;;;5075836;28;20936;-69
2023/11/04 03:38:34;;;;;;;1999.90;999.90;;;9.40;99.90;;;;;;5075976;28;20226;-68
2023/11/04 03:41:00;;;;;;;1999.90;999.90;;;9.30;99.90;;;;;;5075720;28;20419;-69
2023/11/04 03:43:25;;;;;;;1999.90;999.90;;;9.40;99.90;;;;;;5075906;28;20622;-68
2023/11/04 03:45:51;;;;;;;1999.90;999.90;;;9.30;99.90;;;;;;5075807;28;20188;-68
2023/11/04 03:48:17;;;;;;;1999.90;999.90;;;9.20;99.90;;;;;;5075429;28;20181;-68
2023/11/04 03:50:43;;;;;;;1999.90;999.90;;;9.40;99.90;;;;;;5075508;28;21018;-69
2023/11/04 03:53:09;;;;;;;1999.90;999.90;;;9.20;99.90;;;;;;5075773;28;20398;-69
2023/11/04 03:55:35;;;;;;;1999.90;999.90;;;9.10;99.90;;;;;;5075088;28;20415;-69
2023/11/04 03:58:01;;;;;;;1999.90;999.90;;;9.10;99.90;;;;;;5075215;28;20283;-68
2023/11/04 04:00:27;;;;;;;1999.90;999.90;;;9.00;99.90;;;;;;5075350;28;20453;-68
2023/11/04 04:02:53;;;;;;;1999.90;999.90;;;9.00;99.90;;;;;;5074816;28;20238;-68
2023/11/04 04:05:18;;;;;;;1999.90;999.90;;;9.10;99.90;;;;;;5074325;28;20414;-68
2023/11/04 04:07:44;;;;;;;1999.90;999.90;;;9.10;99.90;;;;;;5074539;28;20169;-68
2023/11/04 04:10:10;;;;;;;1999.90;999.90;;;9.10;99.90;;;;;;5073678;28;20218;-68
2023/11/04 04:12:35;;;;;;;1999.90;999.90;;;9.20;99.90;;;;;;5074296;28;20171;-69
2023/11/04 04:15:01;;;;;;;1999.90;999.90;;;9.20;99.90;;;;;;5074589;28;20182;-68
2023/11/04 04:17:27;;;;;;;1999.90;999.90;;;9.30;99.90;;;;;;5074570;28;20235;-68
2023/11/04 04:19:52;;;;;;;1999.90;999.90;;;9.20;99.90;;;;;;5074036;28;20823;-69
2023/11/04 04:22:18;;;;;;;1999.90;999.90;;;9.30;99.90;;;;;;5073950;28;20177;-68
2023/11/04 04:24:43;;;;;;;1999.90;999.90;;;9.50;99.90;;;;;;5074066;28;20166;-68
2023/11/04 04:27:09;;;;;;;1999.90;999.90;;;9.40;99.90;;;;;;5074336;28;20531;-68
2023/11/04 04:29:35;;;;;;;1999.90;999.90;;;9.50;99.90;;;;;;5074135;28;20185;-69
2023/11/04 04:32:00;;;;;;;1999.90;999.90;;;9.60;99.90;;;;;;5074048;28;20184;-69
2023/11/04 04:34:26;;;;;;;1999.90;999.90;;;9.50;99.90;;;;;;5074157;28;20196;-69
2023/11/04 04:36:52;;;;;;;1999.90;999.90;;;9.60;99.90;;;;;;5074467;28;20182;-69
2023/11/04 04:39:18;;;;;;;1999.90;999.90;;;9.60;99.90;;;;;;5074382;28;20898;-69
2023/11/04 04:41:44;;;;;;;1999.90;999.90;;;9.50;99.90;;;;;;5073586;28;20161;-69
2023/11/04 04:44:10;;;;;;;1999.90;999.90;;;9.50;99.90;;;;;;5072593;28;20211;-69
2023/11/04 04:46:39;;;;;;;1999.90;999.90;;;9.40;99.90;;;;;;5072705;28;20434;-68
2023/11/04 04:49:05;;;;;;;1999.90;999.90;;;9.30;99.90;;;;;;5072316;28;20162;-68
2023/11/04 04:51:31;;;;;;;1999.90;999.90;;;9.40;99.90;;;;;;5072269;28;20883;-68
2023/11/04 04:53:56;;;;;;;1999.90;999.90;;;9.40;99.90;;;;;;5072428;28;20395;-68
2023/11/04 04:56:23;;;;;;;1999.90;999.90;;;9.30;99.90;;;;;;5072507;28;20170;-69
2023/11/04 04:58:49;;;;;;;1999.90;999.90;;;9.30;99.90;;;;;;5072291;28;20290;-68
2023/11/04 05:01:21;;;;;;;1999.90;999.90;;;9.30;99.90;;;;;;5072204;28;20417;-68
2023/11/04 05:03:47;;;;;;;1999.90;999.90;;;9.30;99.90;;;;;;5072031;28;20435;-69
2023/11/04 05:06:13;;;;;;;1999.90;999.90;;;9.30;99.90;;;;;;5072234;28;20898;-69
2023/11/04 05:08:39;;;;;;;1999.90;999.90;;;9.40;99.90;;;;;;5072110;28;20219;-69
2023/11/04 05:11:05;;;;;;;1999.90;999.90;;;9.30;99.90;;;;;;5072136;28;20200;-69
2023/11/04 05:13:30;;;;;;;1999.90;999.90;;;9.40;99.90;;;;;;5062943;28;20190;-69
2023/11/04 05:15:56;;;;;;;1999.90;999.90;;;9.30;99.90;;;;;;5063744;28;20902;-69
2023/11/04 05:18:22;;;;;;;1999.90;999.90;;;9.30;99.90;;;;;;5071888;28;20223;-68
2023/11/04 05:20:47;;;;;;;1999.90;999.90;;;9.30;99.90;;;;;;5063876;28;20430;-68
2023/11/04 05:23:14;;;;;;;1999.90;999.90;;;9.30;99.90;;;;;;5062766;28;20180;-68
2023/11/04 05:25:39;;;;;;;1999.90;999.90;;;9.30;99.90;;;;;;5072059;28;20174;-68
2023/11/04 05:28:05;;;;;;;1999.90;999.90;;;9.30;99.90;;;;;;5063653;28;20428;-68
2023/11/04 05:30:31;;;;;;;1999.90;999.90;;;9.30;99.90;;;;;;5063434;28;20197;-68
2023/11/04 05:32:58;;;;;;;1999.90;999.90;;;9.30;99.90;;;;;;5063207;28;20185;-69
2023/11/04 05:35:24;;;;;;;1999.90;999.90;;;9.30;99.90;;;;;;5071866;28;20217;-68
2023/11/04 05:37:49;;;;;;;1999.90;999.90;;;9.30;99.90;;;;;;5071734;28;20486;-68
2023/11/04 05:40:15;;;;;;;1999.90;999.90;;;9.40;99.90;;;;;;5063616;28;20201;-68
2023/11/04 05:42:41;;;;;;;1999.90;999.90;;;9.30;99.90;;;;;;5061353;28;20616;-69
2023/11/04 05:45:07;;;;;;;1999.90;999.90;;;9.40;99.90;;;;;;5053978;28;20221;-69
2023/11/04 05:47:33;;;;;;;1999.90;999.90;;;9.30;99.90;;;;;;5063298;28;20416;-68
2023/11/04 05:50:00;;;;;;;1999.90;999.90;;;9.20;99.90;;;;;;5071637;28;20435;-69
2023/11/04 05:52:25;;;;;;;1999.90;999.90;;;9.30;99.90;;;;;;5071678;28;20663;-68
2023/11/04 05:54:52;;;;;;;1999.90;999.90;;;9.30;99.90;;;;;;5071635;28;20412;-69
2023/11/04 05:57:18;;;;;;;1999.90;999.90;;;9.20;99.90;;;;;;5071600;28;20200;-69
2023/11/04 05:59:44;;;;;;;1999.90;999.90;;;9.20;99.90;;;;;;5071450;28;20426;-69
2023/11/04 06:02:10;;;;;;;1999.90;999.90;;;9.20;99.90;;;;;;5071302;28;20399;-69
2023/11/04 06:04:35;;;;;;;1999.90;999.90;;;9.20;99.90;;;;;;5071737;28;20408;-69
2023/11/04 06:07:01;;;;;;;1999.90;999.90;;;9.40;99.90;;;;;;5071690;28;20779;-69
2023/11/04 06:09:27;;;;;;;1999.90;999.90;;;9.30;99.90;;;;;;5071409;28;20209;-69
2023/11/04 06:11:56;;;;;;;1999.90;999.90;;;9.20;99.90;;;;;;5071388;28;20173;-69
2023/11/04 06:14:21;;;;;;;1999.90;999.90;;;9.30;99.90;;;;;;5071430;28;20439;-68
2023/11/04 06:16:47;;;;;;;1999.90;999.90;;;9.30;99.90;;;;;;5071421;28;20448;-69
2023/11/04 06:19:13;;;;;;;1999.90;999.90;;;9.20;99.90;;;;;;5071471;28;20263;-69
2023/11/04 06:21:39;;;;;;;1999.90;999.90;;;9.20;99.90;;;;;;5071525;28;20702;-69
2023/11/04 06:24:04;;;;;;;1999.90;999.90;;;9.10;99.90;;;;;;5071443;28;20196;-69
2023/11/04 06:26:30;;;;;;;1999.90;999.90;;;9.00;99.90;;;;;;5071407;28;20533;-69
2023/11/04 06:28:56;;;;;;;1999.90;999.90;;;8.90;99.90;;;;;;5071379;28;20223;-69
2023/11/04 06:31:22;;;;;;;1999.90;999.90;;;8.90;99.90;;;;;;5071459;28;20275;-69
2023/11/04 06:33:51;;;;;;;1999.90;999.90;;;8.90;99.90;;;;;;5072557;28;20412;-69
2023/11/04 06:36:16;;;;;;;1999.90;999.90;;;8.90;99.90;;;;;;5075314;28;20454;-69
2023/11/04 06:38:42;;;;;;;1999.90;999.90;;;9.00;99.90;;;;;;5074983;28;20918;-69
2023/11/04 06:41:16;;;;;;;1999.90;999.90;;;9.10;99.90;;;;;;5075050;28;20662;-69
2023/11/04 06:43:46;;;;;;;1999.90;999.90;;;9.10;99.90;;;;;;5074630;28;20209;-69
2023/11/04 06:46:12;;;;;;;1999.90;999.90;;;9.10;99.90;;;;;;5075025;28;20407;-69
2023/11/04 06:48:38;;;;;;;1999.90;999.90;;;9.10;99.90;;;;;;5074860;28;20403;-68
2023/11/04 06:51:04;;;;;;;1999.90;999.90;;;9.10;99.90;;;;;;5074854;28;20441;-68
2023/11/04 06:53:30;;;;;;;1999.90;999.90;;;9.20;99.90;;;;;;5074490;28;20416;-69
2023/11/04 06:55:56;;;;;;;1999.90;999.90;;;9.20;99.90;;;;;;5074751;28;20408;-68
2023/11/04 06:58:22;;;;;;;1999.90;999.90;;;9.30;99.90;;;;;;5074452;28;20290;-68
2023/11/04 07:00:48;;;;;;;1999.90;999.90;;;9.40;99.90;;;;;;5074524;28;20449;-68
2023/11/04 07:03:14;;;;;;;1999.90;999.90;;;9.30;99.90;;;;;;5074416;28;20985;-69
2023/11/04 07:05:40;;;;;;;1999.90;999.90;;;9.30;99.90;;;;;;5074502;28;20401;-68
2023/11/04 07:08:06;;;;;;;1999.90;999.90;;;9.40;99.90;;;;;;5074535;28;20167;-68
2023/11/04 07:10:37;;;;;;;1999.90;999.90;;;9.40;99.90;;;;;;5074391;28;20447;-68
2023/11/04 07:13:03;;;;;;;1999.90;999.90;;;9.50;99.90;;;;;;5074341;28;20186;-69
2023/11/04 07:15:28;;;;;;;1999.90;999.90;;;9.60;99.90;;;;;;5074308;28;20414;-69
2023/11/04 07:17:55;;;;;;;1999.90;999.90;;;9.60;99.90;;;;;;5074137;28;20543;-68
2023/11/04 07:20:21;;;;;;;1999.90;999.90;;;9.70;99.90;;;;;;5074135;28;20193;-68
2023/11/04 07:22:47;;;;;;;1999.90;999.90;;;9.80;99.90;;;;;;5074019;28;20773;-68
2023/11/04 07:25:12;;;;;;;1999.90;999.90;;;9.70;99.90;;;;;;5074258;28;20400;-68
2023/11/04 07:27:38;;;;;;;1999.90;999.90;;;9.70;99.90;;;;;;5074098;28;20338;-68
2023/11/04 07:30:04;;;;;;;1999.90;999.90;;;9.80;99.90;;;;;;5074033;28;20199;-68
2023/11/04 07:32:30;;;;;;;1999.90;999.90;;;9.80;99.90;;;;;;5073968;28;20251;-69
2023/11/04 07:34:55;;;;;;;1999.90;999.90;;;9.90;99.90;;;;;;5074078;28;20558;-68
2023/11/04 07:37:21;;;;;;;1999.90;999.90;;;10.00;99.90;;;;;;5074036;28;20172;-68
2023/11/04 07:39:46;;;;;;;1999.90;999.90;;;9.90;99.90;;;;;;5074166;28;20196;-68
2023/11/04 07:42:12;;;;;;;1999.90;999.90;;;9.90;99.90;;;;;;5073621;28;20331;-68
2023/11/04 07:44:39;;;;;;;1999.90;999.90;;;10.10;99.90;;;;;;5073706;28;20174;-69
2023/11/04 07:47:04;;;;;;;1999.90;999.90;;;10.10;99.90;;;;;;5073522;28;20179;-68
2023/11/04 07:49:30;;;;;;;1999.90;999.90;;;10.10;99.90;;;;;;5073829;28;20437;-69
2023/11/04 07:51:56;;;;;;;1999.90;999.90;;;10.10;99.90;;;;;;5073535;28;20170;-68
2023/11/04 07:54:21;;;;;;;1999.90;999.90;;;10.10;99.90;;;;;;5073527;28;20708;-68
2023/11/04 07:56:47;;;;;;;1999.90;999.90;;;10.20;99.90;;;;;;5073483;28;20595;-69
2023/11/04 07:59:13;;;;;;;1999.90;999.90;;;10.30;99.90;;;;;;5073270;28;20262;-68
2023/11/04 08:01:38;;;;;;;1999.90;999.90;;;10.20;99.90;;;;;;5073295;28;20177;-68
2023/11/04 08:04:05;;;;;;;1999.90;999.90;;;10.20;99.90;;;;;;5073527;28;20407;-69
2023/11/04 08:06:30;;;;;;;1999.90;999.90;;;10.30;99.90;;;;;;5073494;28;20240;-68
2023/11/04 08:08:56;;;;;;;1999.90;999.90;;;10.50;99.90;;;;;;5073222;28;20860;-69
2023/11/04 08:11:22;;;;;;;1999.90;999.90;;;10.30;99.90;;;;;;5073292;28;20230;-68
2023/11/04 08:13:49;;;;;;;1999.90;999.90;;;10.40;99.90;;;;;;5073012;28;20911;-69
2023/11/04 08:16:14;;;;;;;1999.90;999.90;;;10.40;99.90;;;;;;5055407;28;20419;-68
2023/11/04 08:18:40;;;;;;;1999.90;999.90;;;10.50;99.90;;;;;;5073122;28;20455;-69
2023/11/04 08:21:06;;;;;;;1999.90;999.90;;;10.60;99.90;;;;;;5073000;28;20269;-69
2023/11/04 08:23:32;;;;;;;1999.90;999.90;;;10.70;99.90;;;;;;5067772;28;20943;-69
2023/11/04 08:25:58;;;;;;;1999.90;999.90;;;10.80;99.90;;;;;;5066171;28;20487;-68
2023/11/04 08:28:25;;;;;;;1999.90;999.90;;;10.90;99.90;;;;;;5063661;28;20175;-69
2023/11/04 08:30:51;;;;;;;1999.90;999.90;;;10.90;99.90;;;;;;5067882;28;20241;-69
2023/11/04 08:33:17;;;;;;;1999.90;999.90;;;11.00;99.90;;;;;;5071088;28;20410;-70
2023/11/04 08:35:43;;;;;;;1999.90;999.90;;;11.00;99.90;;;;;;5065896;28;20450;-69
2023/11/04 08:38:09;;;;;;;1999.90;999.90;;;11.10;99.90;;;;;;5074411;28;20460;-70
2023/11/04 08:40:34;;;;;;;1999.90;999.90;;;11.30;99.90;;;;;;5068568;28;20195;-70
2023/11/04 08:43:00;;;;;;;1999.90;999.90;;;11.30;99.90;;;;;;5069413;28;20170;-68
2023/11/04 08:45:25;;;;;;;1999.90;999.90;;;11.20;99.90;;;;;;5073623;28;20250;-70
2023/11/04 08:47:52;;;;;;;1999.90;999.90;;;11.20;99.90;;;;;;5073945;28;20175;-70
2023/11/04 08:50:18;;;;;;;1999.90;999.90;;;11.30;99.90;;;;;;5065467;28;20198;-69
2023/11/04 08:52:43;;;;;;;1999.90;999.90;;;11.30;99.90;;;;;;5073646;28;20409;-70
2023/11/04 08:55:10;;;;;;;1999.90;999.90;;;11.30;99.90;;;;;;5073640;28;20170;-69
2023/11/04 08:57:35;;;;;;;1999.90;999.90;;;11.40;99.90;;;;;;5073471;28;20694;-70
2023/11/04 09:00:05;;;;;;;1999.90;999.90;;;11.30;99.90;;;;;;5073521;28;20523;-69
2023/11/04 09:02:31;;;;;;;1999.90;999.90;;;11.40;99.90;;;;;;5073039;28;20155;-69
2023/11/04 09:04:56;;;;;;;1999.90;999.90;;;11.40;99.90;;;;;;5066857;28;20554;-69
2023/11/04 09:07:23;;;;;;;1999.90;999.90;;;11.40;99.90;;;;;;5066246;28;20397;-69
2023/11/04 09:09:48;;;;;;;1999.90;999.90;;;11.50;99.90;;;;;;5073678;28;20288;-69
2023/11/04 09:12:14;;;;;;;1999.90;999.90;;;11.50;99.90;;;;;;5073879;28;20412;-69
2023/11/04 09:14:39;;;;;;;1999.90;999.90;;;11.50;99.90;;;;;;5074438;28;20231;-69
2023/11/04 09:17:05;;;;;;;1999.90;999.90;;;11.50;99.90;;;;;;5074281;28;20168;-69
2023/11/04 09:19:31;;;;;;;1999.90;999.90;;;11.60;99.90;;;;;;5073037;28;20207;-69
2023/11/04 09:21:56;;;;;;;1999.90;999.90;;;11.60;99.90;;;;;;5072021;28;20581;-69
2023/11/04 09:24:22;;;;;;;1999.90;999.90;;;11.70;99.90;;;;;;5059716;28;20275;-70
2023/11/04 09:26:47;;;;;;;1999.90;999.90;;;11.80;99.90;;;;;;5028537;28;20184;-69
2023/11/04 09:29:13;;;;;;;1999.90;999.90;;;11.80;99.90;;;;;;5026609;28;20725;-70
2023/11/04 09:31:39;;;;;;;1999.90;999.90;;;11.90;99.90;;;;;;5034989;28;20175;-70
2023/11/04 09:34:08;;;;;;;1999.90;999.90;;;12.10;99.90;;;;;;5028415;28;20175;-71
2023/11/04 09:36:35;;;;;;;1999.90;999.90;;;12.20;99.90;;;;;;5046916;28;20195;-71
2023/11/04 09:39:00;;;;;;;1999.90;999.90;;;12.20;99.90;;;;;;5018876;28;20526;-71
2023/11/04 09:41:26;;;;;;;1999.90;999.90;;;12.30;99.90;;;;;;5058280;28;21149;-70
2023/11/04 09:43:52;;;;;;;1999.90;999.90;;;12.30;99.90;;;;;;5066930;28;20471;-70
2023/11/04 09:46:18;;;;;;;1999.90;999.90;;;12.30;99.90;;;;;;5066860;28;20642;-70
2023/11/04 09:48:43;;;;;;;1999.90;999.90;;;12.30;99.90;;;;;;5067401;28;20832;-70
2023/11/04 09:51:13;;;;;;;1999.90;999.90;;;12.40;99.90;;;;;;5066970;28;20195;-70
2023/11/04 09:53:45;;;;;;;1999.90;999.90;;;12.50;99.90;;;;;;5066776;28;20198;-70
2023/11/04 09:56:10;;;;;;;1999.90;999.90;;;12.60;99.90;;;;;;5067472;28;20421;-70
2023/11/04 09:58:38;;;;;;;1999.90;999.90;;;12.60;99.90;;;;;;5067062;28;20972;-70
2023/11/04 10:01:03;;;;;;;1999.90;999.90;;;12.50;99.90;;;;;;5066809;28;20204;-70
2023/11/04 10:03:29;;;;;;;1999.90;999.90;;;12.50;99.90;;;;;;5066884;28;20413;-70
2023/11/04 10:05:55;;;;;;;1999.90;999.90;;;12.40;99.90;;;;;;5067068;28;20490;-70
2023/11/04 10:08:20;;;;;;;1999.90;999.90;;;12.30;99.90;;;;;;5067148;28;20189;-70
2023/11/04 10:10:46;;;;;;;1999.90;999.90;;;12.20;99.90;;;;;;5070982;28;20202;-70
2023/11/04 10:13:12;;;;;;;1999.90;999.90;;;12.20;99.90;;;;;;5070950;28;20183;-70
2023/11/04 10:15:37;;;;;;;1999.90;999.90;;;12.10;99.90;;;;;;5070795;28;20920;-70
2023/11/04 10:18:04;;;;;;;1999.90;999.90;;;12.00;99.90;;;;;;5070699;28;20207;-70
2023/11/04 10:20:29;;;;;;;1999.90;999.90;;;12.00;99.90;;;;;;5070903;28;20724;-70
2023/11/04 10:22:55;;;;;;;1999.90;999.90;;;12.00;99.90;;;;;;5070065;28;20411;-70
2023/11/04 10:25:21;;;;;;;1999.90;999.90;;;12.00;99.90;;;;;;5070327;28;20198;-70
2023/11/04 10:27:46;;;;;;;1999.90;999.90;;;11.90;99.90;;;;;;5070426;28;20450;-70
2023/11/04 10:30:12;;;;;;;1999.90;999.90;;;11.80;99.90;;;;;;5070095;28;20194;-70
2023/11/04 10:32:39;;;;;;;1999.90;999.90;;;11.80;99.90;;;;;;5070491;28;20186;-70
2023/11/04 10:35:11;;;;;;;1999.90;999.90;;;11.80;99.90;;;;;;5070645;28;20922;-70
2023/11/04 10:37:39;;;;;;;1999.90;999.90;;;11.70;99.90;;;;;;5069904;28;20449;-70
2023/11/04 10:40:05;;;;;;;1999.90;999.90;;;11.70;99.90;;;;;;5069784;28;20466;-70
2023/11/04 10:42:35;;;;;;;1999.90;999.90;;;11.70;99.90;;;;;;5070529;28;20404;-70
2023/11/04 10:45:16;;;;;;;1999.90;999.90;;;11.60;99.90;;;;;;5070543;28;20839;-70
2023/11/04 10:48:03;;;;;;;1999.90;999.90;;;11.70;99.90;;;;;;5070741;28;20427;-70
2023/11/04 10:50:33;;;;;;;1999.90;999.90;;;11.50;99.90;;;;;;5092495;22;20516;-69
2023/11/04 10:53:04;;;;;;;1999.90;999.90;;;11.50;99.90;;;;;;5050277;28;20418;-70
2023/11/04 10:55:40;;;;;;;1999.90;999.90;;;11.40;99.90;;;;;;5042454;28;20419;-69
2023/11/04 10:58:16;;;;;;;1999.90;999.90;;;11.30;99.90;;;;;;5050143;28;20952;-70
2023/11/04 11:00:43;;;;;;;1999.90;999.90;;;11.20;99.90;;;;;;5050522;28;20517;-70
2023/11/04 11:03:09;;;;;;;1999.90;999.90;;;11.10;99.90;;;;;;5049581;28;20436;-70
2023/11/04 11:05:35;;;;;;;1999.90;999.90;;;11.00;99.90;;;;;;5049563;28;20406;-70
2023/11/04 11:08:03;;;;;;;1999.90;999.90;;;10.90;99.90;;;;;;5050434;28;20463;-70
2023/11/04 11:10:45;;;;;;;1999.90;999.90;;;10.90;99.90;;;;;;5031864;28;20483;-70
2023/11/04 11:13:17;;;;;;;1999.90;999.90;;;10.80;99.90;;;;;;5058446;28;20464;-70
2023/11/04 11:15:43;;;;;;;1999.90;999.90;;;10.80;99.90;;;;;;5029374;28;20407;-70
2023/11/04 11:18:11;;;;;;;1999.90;999.90;;;10.80;99.90;;;;;;5045141;28;20827;-69
2023/11/04 11:20:37;;;;;;;1999.90;999.90;;;10.70;99.90;;;;;;5034173;28;20436;-70
2023/11/04 11:23:10;;;;;;;1999.90;999.90;;;10.70;99.90;;;;;;5039498;28;20961;-70
2023/11/04 11:25:37;;;;;;;1999.90;999.90;;;10.70;99.90;;;;;;5048922;28;20410;-70
2023/11/04 11:28:16;;;;;;;1999.90;999.90;;;10.70;99.90;;;;;;5049188;28;20471;-70
2023/11/04 11:30:44;;;;;;;1999.90;999.90;;;10.70;99.90;;;;;;5049433;28;20524;-70
2023/11/04 11:33:12;;;;;;;1999.90;999.90;;;10.60;99.90;;;;;;5048923;28;20830;-70
2023/11/04 11:35:57;;;;;;;1999.90;999.90;;;10.60;99.90;;;;;;5046593;28;20438;-70
2023/11/04 11:38:33;;;;;;;1999.90;999.90;;;10.70;99.90;;;;;;5029031;28;20466;-70
2023/11/04 11:41:03;;;;;;;1999.90;999.90;;;10.70;99.90;;;;;;5043414;28;20431;-70
2023/11/04 11:43:29;;;;;;;1999.90;999.90;;;10.70;99.90;;;;;;5031678;28;20528;-70
2023/11/04 11:45:55;;;;;;;1999.90;999.90;;;10.80;99.90;;;;;;5048697;28;20417;-70
2023/11/04 11:48:21;;;;;;;1999.90;999.90;;;10.80;99.90;;;;;;5056043;28;20482;-70
2023/11/04 11:50:47;;;;;;;1999.90;999.90;;;10.70;99.90;;;;;;5032809;28;20332;-70
2023/11/04 11:53:13;;;;;;;1999.90;999.90;;;10.80;99.90;;;;;;5058669;28;20529;-70
2023/11/04 11:55:39;;;;;;;1999.90;999.90;;;10.70;99.90;;;;;;5060231;28;20167;-71
2023/11/04 11:58:05;;;;;;;1999.90;999.90;;;10.70;99.90;;;;;;5069316;28;20286;-70
2023/11/04 12:00:31;;;;;;;1999.90;999.90;;;10.90;99.90;;;;;;5069011;28;20517;-70
2023/11/04 12:02:57;;;;;;;1999.90;999.90;;;10.70;99.90;;;;;;5068508;28;20182;-70